»·PEaware :: N325HC KVGT-KIFP

N325HC :: KVGT-KIFP

FLIGHT INFORMATION

Flight Status: Arrived
Operator: Privately registered:
United States
More flights under this callsign
Pilot: Ian H. (8262)
Aircraft: Unknown
(0)
More flights by this aircraft type
Origin: KVGT North Las Vegas
United States
Destination: KIFP Laughlin/Bullhead Intl
United States
More flights between these airports :: More routes between these airports
Route: +RTTRN3 LAS GFS
File this flight plan on PilotEdge
Remarks:
Altitude:
(Current/Filed)
9,000ft
Speed:
(Current/Filed)
150kts
Departed: 06-Jul-18 09:25 AM
Arrived: 06-Jul-18 10:32 AM
Distance/Time
Traveled:
70nm/1:07
Distance/Time
To Go:
Arrived

Flight Plot

Page will automatically refresh every two minutes.

Flight plan parsing failed; only flown route is shown


Map Options




Map Legend


Flown Route
Filed Route
Departure Airport
Arrival Airport
Navaid (VOR, NDB)
Fix

Horizontal Profiles

Position Reports

Time Latitude Longitude Heading Altitude Ground
Speed
06-Jul-18 09:02 36.212465 -115.206685 359 2210ft 0kts
06-Jul-18 09:03 36.212357 -115.203299 359 2207ft 0kts
06-Jul-18 09:04 36.212357 -115.203299 359 2207ft 0kts
06-Jul-18 09:05 36.212357 -115.203299 359 2207ft 0kts
06-Jul-18 09:06 36.212357 -115.203299 359 2207ft 0kts
06-Jul-18 09:07 36.212357 -115.203299 359 2207ft 0kts
06-Jul-18 09:08 36.212357 -115.203299 359 2207ft 0kts
06-Jul-18 09:09 36.212357 -115.203299 359 2207ft 0kts
06-Jul-18 09:10 36.212357 -115.203299 359 2207ft 0kts
06-Jul-18 09:11 36.212357 -115.203299 359 2207ft 0kts
06-Jul-18 09:12 36.212357 -115.203299 359 2207ft 0kts
06-Jul-18 09:13 36.212357 -115.203299 359 2207ft 0kts
06-Jul-18 09:14 36.212357 -115.203299 359 2207ft 0kts
06-Jul-18 09:15 36.212357 -115.203299 359 2207ft 0kts
06-Jul-18 09:16 36.212357 -115.203299 359 2207ft 0kts
06-Jul-18 09:17 36.212357 -115.203299 359 2207ft 0kts
06-Jul-18 09:18 36.212357 -115.203299 359 2207ft 0kts
06-Jul-18 09:19 36.212357 -115.203299 359 2207ft 0kts
06-Jul-18 09:20 36.212357 -115.203299 359 2207ft 0kts
06-Jul-18 09:21 36.212357 -115.203299 359 2207ft 0kts
06-Jul-18 09:22 36.213676 -115.203327 1 2207ft 0kts
06-Jul-18 09:23 36.213843 -115.203316 358 2207ft 0kts
06-Jul-18 09:24 36.214019 -115.203264 24 2207ft 0kts
06-Jul-18 09:25 36.214019 -115.203264 24 2207ft 0kts
06-Jul-18 09:26 36.209184 -115.195772 139 2200ft 93kts
06-Jul-18 09:27 36.192867 -115.202878 263 3313ft 95kts
06-Jul-18 09:28 36.189068 -115.234667 305 4495ft 90kts
06-Jul-18 09:29 36.208039 -115.255048 325 5590ft 92kts
06-Jul-18 09:30 36.230151 -115.271554 324 6625ft 94kts
06-Jul-18 09:31 36.244768 -115.249662 121 7556ft 116kts
06-Jul-18 09:32 36.213771 -115.230855 162 8317ft 119kts
06-Jul-18 09:33 36.184980 -115.212323 159 9092ft 127kts
06-Jul-18 09:34 36.148379 -115.192187 162 9159ft 163kts
06-Jul-18 09:35 36.103753 -115.171237 163 9028ft 175kts
06-Jul-18 09:36 36.057865 -115.154801 178 9038ft 170kts
06-Jul-18 09:37 36.012107 -115.158208 189 9050ft 166kts
06-Jul-18 09:38 35.965535 -115.160244 182 9054ft 168kts
06-Jul-18 09:39 35.918980 -115.161250 182 9054ft 167kts
06-Jul-18 09:40 35.872622 -115.162249 182 9063ft 167kts
06-Jul-18 09:41 35.826109 -115.163254 182 9063ft 167kts
06-Jul-18 09:42 35.779710 -115.164252 182 9063ft 167kts
06-Jul-18 09:43 35.733497 -115.165247 182 9064ft 167kts
06-Jul-18 09:44 35.687145 -115.164464 176 9064ft 167kts
06-Jul-18 09:45 35.641443 -115.159978 182 9064ft 166kts
06-Jul-18 09:46 35.595406 -115.163846 184 9063ft 166kts
06-Jul-18 09:47 35.549113 -115.165419 182 9063ft 166kts
06-Jul-18 09:48 35.503025 -115.166440 182 9062ft 166kts
06-Jul-18 09:49 35.456759 -115.167444 182 9057ft 166kts
06-Jul-18 09:50 35.410654 -115.168438 182 9056ft 167kts
06-Jul-18 09:51 35.364205 -115.169444 182 9052ft 167kts
06-Jul-18 09:52 35.317805 -115.170279 182 9020ft 169kts
06-Jul-18 09:53 35.270566 -115.171034 183 8977ft 170kts
06-Jul-18 09:54 35.222908 -115.171850 184 8934ft 172kts
06-Jul-18 09:55 35.174774 -115.174245 184 8909ft 173kts
06-Jul-18 09:56 35.127578 -115.176330 170 8910ft 167kts
06-Jul-18 09:57 35.106377 -115.127908 121 8923ft 173kts
06-Jul-18 09:58 35.081584 -115.078126 125 9039ft 175kts
06-Jul-18 09:59 35.055143 -115.027413 124 9037ft 179kts
06-Jul-18 10:00 35.028306 -114.976063 123 9035ft 180kts
06-Jul-18 10:01 35.001335 -114.924405 122 9036ft 181kts
06-Jul-18 10:02 34.974257 -114.872343 123 9037ft 182kts
06-Jul-18 10:03 34.946909 -114.819915 122 9039ft 183kts
06-Jul-18 10:04 34.919286 -114.767858 121 9041ft 181kts
06-Jul-18 10:05 34.892542 -114.716779 120 9042ft 177kts
06-Jul-18 10:05 34.870996 -114.675396 121 9041ft 164kts
06-Jul-18 10:06 34.847548 -114.630577 120 9041ft 149kts
06-Jul-18 10:07 34.826467 -114.590367 120 9042ft 136kts
06-Jul-18 10:08 34.806573 -114.552428 120 9043ft 131kts
06-Jul-18 10:09 34.787181 -114.515454 120 9043ft 129kts
06-Jul-18 10:10 34.767968 -114.478800 120 9043ft 128kts
06-Jul-18 10:11 34.737044 -114.451599 141 8241ft 142kts
06-Jul-18 10:12 34.708869 -114.464807 251 7796ft 136kts
06-Jul-18 10:13 34.733574 -114.481431 26 6898ft 141kts
06-Jul-18 10:14 34.760999 -114.471901 85 6862ft 81kts
06-Jul-18 10:15 34.748206 -114.454993 168 7757ft 79kts
06-Jul-18 10:16 34.718904 -114.441454 156 7394ft 149kts
06-Jul-18 10:17 34.693696 -114.464843 298 6599ft 164kts
06-Jul-18 10:18 34.728224 -114.468005 2 6312ft 106kts
06-Jul-18 10:19 34.752744 -114.471528 353 6301ft 86kts
06-Jul-18 10:20 34.777722 -114.477002 350 6492ft 96kts
06-Jul-18 10:21 34.810207 -114.485138 350 6416ft 135kts
06-Jul-18 10:22 34.849929 -114.495642 349 5744ft 150kts
06-Jul-18 10:23 34.888872 -114.505342 350 5033ft 137kts
06-Jul-18 10:24 34.921134 -114.513062 350 4915ft 99kts
06-Jul-18 10:25 34.951490 -114.519396 348 4787ft 124kts
06-Jul-18 10:26 34.986925 -114.527572 347 4213ft 136kts
06-Jul-18 10:27 35.022184 -114.535999 345 3792ft 132kts
06-Jul-18 10:28 35.059318 -114.543852 0 2925ft 120kts
06-Jul-18 10:29 35.093942 -114.551304 339 2106ft 128kts
06-Jul-18 10:30 35.126766 -114.557879 357 1561ft 123kts
06-Jul-18 10:31 35.156458 -114.559499 358 649ft 56kts
06-Jul-18 10:32 35.157813 -114.568797 247 511ft 40kts
06-Jul-18 10:33 35.156427 -114.572068 198 512ft 0kts
06-Jul-18 10:34 35.156427 -114.572068 198 512ft 0kts
06-Jul-18 10:35 35.156427 -114.572068 198 512ft 0kts
06-Jul-18 10:36 35.156427 -114.572068 198 512ft 0kts

Navigation Log

Ident Type
Flight plan parsing failed, navigation log unavailable